Aviation Digital Data Service (ADDS)

Output produced by METARs form (0031 UTC 31 July 2016)
found at http://aviationweather.gov/adds/metars/
 
KMPV 302321Z 3100/3124 VRB03KT P6SM SCT200 
     FM311100 00000KT P6SM BKN110 
     FM311600 00000KT P6SM VCSH BKN100 
     FM312000 12008KT 4SM RA BR OVC040